Time;durP1;ratioP1;P1;durP2;ratioP2;P2;SDS_P1;SDS_P2;PMS_P1;PMS_P2;Temp;Humidity;BMP_temperature;BMP_pressure;BME280_temperature;BME280_humidity;BME280_pressure;Samples;Min_cycle;Max_cycle;Signal;HPM_P1;HPM_P2
2022/09/02 00:00:16;;;;;;;4.35;2.33;;;;;13.70;96558.00;;;;8361127;28;20220;-69
2022/09/02 00:04:23;;;;;;;3.58;2.20;;;;;13.70;96559.00;;;;8360117;28;20227;-69
2022/09/02 00:08:26;;;;;;;2.22;2.03;;;;;13.60;96550.00;;;;8360507;28;20257;-69
2022/09/02 00:12:29;;;;;;;3.13;1.98;;;;;13.60;96550.00;;;;8360699;28;20309;-69
2022/09/02 00:16:33;;;;;;;2.10;2.00;;;;;13.60;96552.00;;;;8361144;28;20238;-69
2022/09/02 00:20:39;;;;;;;3.55;2.53;;;;;13.60;96543.00;;;;8360342;28;20677;-69
2022/09/02 00:24:42;;;;;;;2.22;2.03;;;;;13.50;96550.00;;;;8361244;28;20227;-69
2022/09/02 00:29:19;;;;;;;2.53;1.92;;;;;13.50;96547.00;;;;8360293;28;20231;-69
2022/09/02 00:33:22;;;;;;;2.38;2.20;;;;;13.50;96549.00;;;;8358609;28;20222;-70
2022/09/02 00:37:27;;;;;;;2.78;2.08;;;;;13.50;96540.00;;;;8360340;28;20229;-69
2022/09/02 00:41:31;;;;;;;5.65;2.17;;;;;13.50;96539.00;;;;8359852;28;20686;-69
2022/09/02 00:45:34;;;;;;;2.58;2.17;;;;;13.50;96539.00;;;;8359986;28;20223;-68
2022/09/02 00:49:52;;;;;;;4.78;2.22;;;;;13.40;96537.00;;;;8360089;28;20247;-69
2022/09/02 00:53:58;;;;;;;2.40;2.20;;;;;13.40;96531.00;;;;8363776;28;20227;-69
2022/09/02 00:58:34;;;;;;;3.70;2.28;;;;;13.40;96529.00;;;;8365695;28;20731;-69
2022/09/02 01:02:40;;;;;;;3.92;2.17;;;;;13.30;96526.00;;;;8365735;28;20254;-69
2022/09/02 01:06:43;;;;;;;4.05;2.30;;;;;13.30;96531.00;;;;8366026;28;20229;-69
2022/09/02 01:10:49;;;;;;;4.13;2.20;;;;;13.30;96533.00;;;;8366233;28;20230;-68
2022/09/02 01:14:52;;;;;;;2.30;2.10;;;;;13.20;96535.00;;;;8365974;28;20226;-68
2022/09/02 01:19:28;;;;;;;2.30;2.10;;;;;13.10;96527.00;;;;8366410;28;20307;-69
2022/09/02 01:23:34;;;;;;;3.38;2.50;;;;;13.00;96526.00;;;;8365526;28;20706;-69
2022/09/02 01:27:38;;;;;;;2.95;2.10;;;;;13.00;96522.00;;;;8365601;28;20245;-69
2022/09/02 01:32:15;;;;;;;6.07;2.40;;;;;12.90;96527.00;;;;8365169;28;20661;-69
2022/09/02 01:36:18;;;;;;;4.60;2.30;;;;;12.90;96525.00;;;;8365056;28;20219;-69
2022/09/02 01:40:56;;;;;;;2.67;2.35;;;;;12.90;96519.00;;;;8365441;28;20326;-69
2022/09/02 01:45:00;;;;;;;6.75;2.10;;;;;12.90;96522.00;;;;8365243;28;20313;-68
2022/09/02 01:49:03;;;;;;;5.10;2.85;;;;;12.90;96517.00;;;;8364389;28;20314;-68
2022/09/02 01:53:40;;;;;;;6.22;2.67;;;;;12.90;96514.00;;;;8365390;28;20652;-68
2022/09/02 01:57:44;;;;;;;4.32;2.30;;;;;12.90;96511.00;;;;8364187;28;20230;-68
2022/09/02 02:02:18;;;;;;;5.05;2.20;;;;;12.80;96512.00;;;;8364003;28;20314;-68
2022/09/02 02:06:22;;;;;;;6.45;2.63;;;;;12.90;96513.00;;;;8364333;28;20277;-69
2022/09/02 02:10:59;;;;;;;2.40;2.20;;;;;12.90;96516.00;;;;8363957;28;20210;-70
2022/09/02 02:15:05;;;;;;;4.45;2.40;;;;;12.90;96506.00;;;;8363702;28;20607;-69
2022/09/02 02:19:39;;;;;;;3.17;2.33;;;;;12.80;96508.00;;;;8364151;28;20710;-69
2022/09/02 02:23:42;;;;;;;5.55;3.03;;;;;12.80;96504.00;;;;8363684;28;20254;-68
2022/09/02 02:27:45;;;;;;;3.92;2.35;;;;;12.90;96499.00;;;;8363203;28;20237;-68
2022/09/02 02:31:50;;;;;;;3.00;2.30;;;;;12.80;96494.00;;;;8362360;28;20301;-68
2022/09/02 02:35:58;;;;;;;2.85;2.40;;;;;12.80;96495.00;;;;8362373;28;20230;-69
2022/09/02 02:40:01;;;;;;;2.58;2.10;;;;;12.80;96476.00;;;;8362262;28;20298;-69
2022/09/02 02:44:04;;;;;;;3.55;2.20;;;;;12.80;96492.00;;;;8362820;28;20262;-68
2022/09/02 02:48:43;;;;;;;3.33;2.30;;;;;12.70;96491.00;;;;8355740;28;20304;-69
2022/09/02 02:52:47;;;;;;;2.47;2.25;;;;;12.70;96488.00;;;;8361832;28;20275;-69
2022/09/02 02:57:21;;;;;;;2.63;2.40;;;;;12.60;96490.00;;;;8362719;28;20241;-69
2022/09/02 03:01:58;;;;;;;6.70;2.70;;;;;12.60;96480.00;;;;8361841;28;20225;-69
2022/09/02 03:06:35;;;;;;;5.72;2.35;;;;;12.50;96485.00;;;;8361294;28;20749;-69
2022/09/02 03:10:43;;;;;;;4.32;2.45;;;;;12.50;96478.00;;;;8361317;28;20236;-68
2022/09/02 03:15:14;;;;;;;4.38;2.33;;;;;12.50;96483.00;;;;8361339;28;20317;-68
2022/09/02 03:19:17;;;;;;;6.20;2.67;;;;;12.50;96484.00;;;;8360676;28;20256;-68
2022/09/02 03:23:51;;;;;;;2.58;2.22;;;;;12.50;96484.00;;;;8361476;28;20223;-69
2022/09/02 03:28:31;;;;;;;4.93;2.20;;;;;12.50;96475.00;;;;8361136;28;20310;-69
2022/09/02 03:33:06;;;;;;;3.30;2.58;;;;;12.40;96478.00;;;;8361429;28;20229;-69
2022/09/02 03:37:43;;;;;;;2.85;2.60;;;;;12.40;96471.00;;;;8366054;28;20222;-69
2022/09/02 03:42:20;;;;;;;3.40;2.38;;;;;12.40;96476.00;;;;8360774;28;20310;-69
2022/09/02 03:46:26;;;;;;;2.80;2.53;;;;;12.30;96466.00;;;;8360350;28;20620;-69
2022/09/02 03:50:33;;;;;;;2.55;2.33;;;;;12.30;96473.00;;;;8359551;28;20215;-68
2022/09/02 03:55:04;;;;;;;3.80;2.57;;;;;12.30;96466.00;;;;8356889;28;20574;-69
2022/09/02 03:59:42;;;;;;;2.67;2.47;;;;;12.30;96464.00;;;;8352838;28;20229;-69
2022/09/02 04:04:21;;;;;;;3.17;2.40;;;;;12.20;96461.00;;;;8359940;28;20305;-69
2022/09/02 04:08:55;;;;;;;3.95;2.80;;;;;12.10;96458.00;;;;8359802;28;20574;-69
2022/09/02 04:13:32;;;;;;;4.82;3.28;;;;;12.10;96458.00;;;;8360753;28;20248;-69
2022/09/02 04:17:36;;;;;;;5.15;2.60;;;;;12.00;96457.00;;;;8356859;28;20245;-71
2022/09/02 04:22:12;;;;;;;3.83;2.97;;;;;11.90;96463.00;;;;8360059;28;20325;-71
2022/09/02 04:26:46;;;;;;;3.58;3.00;;;;;11.90;96462.00;;;;8361334;28;20718;-70
2022/09/02 04:31:24;;;;;;;6.32;2.83;;;;;11.80;96466.00;;;;8365944;28;20302;-70
2022/09/02 04:35:30;;;;;;;5.38;2.50;;;;;11.80;96460.00;;;;8364119;28;20231;-70
2022/09/02 04:40:05;;;;;;;3.67;2.70;;;;;11.80;96467.00;;;;8360948;28;20319;-70
2022/09/02 04:44:39;;;;;;;3.47;2.83;;;;;11.90;96469.00;;;;8365197;28;20256;-70
2022/09/02 04:49:17;;;;;;;5.70;3.00;;;;;12.00;96461.00;;;;8365488;28;20223;-70
2022/09/02 04:53:20;;;;;;;3.10;2.80;;;;;12.00;96455.00;;;;8366532;28;20425;-71
2022/09/02 04:57:58;;;;;;;6.50;2.60;;;;;12.10;96459.00;;;;8357903;28;20226;-70
2022/09/02 05:02:32;;;;;;;3.03;2.50;;;;;12.10;96463.00;;;;8364905;28;20231;-69
2022/09/02 05:07:10;;;;;;;3.60;3.25;;;;;12.10;96469.00;;;;8365027;28;20547;-69
2022/09/02 05:11:47;;;;;;;4.65;2.90;;;;;12.10;96470.00;;;;8331213;28;20230;-69
2022/09/02 05:16:24;;;;;;;17.80;3.25;;;;;12.10;96475.00;;;;8331444;28;20217;-69
2022/09/02 05:20:58;;;;;;;4.63;2.78;;;;;12.20;96478.00;;;;8331788;28;20221;-69
2022/09/02 05:25:36;;;;;;;4.10;2.30;;;;;12.30;96473.00;;;;8330838;28;20227;-69
2022/09/02 05:30:10;;;;;;;4.55;2.70;;;;;12.40;96480.00;;;;8330799;28;20227;-69
2022/09/02 05:34:46;;;;;;;17.30;2.85;;;;;12.50;96470.00;;;;8331339;28;20224;-69
2022/09/02 05:39:20;;;;;;;6.35;2.90;;;;;12.50;96474.00;;;;8328933;28;20298;-69
2022/09/02 05:43:23;;;;;;;2.90;2.55;;;;;12.60;96480.00;;;;8331220;28;20226;-69
2022/09/02 05:49:04;;;;;;;3.58;2.72;;;;;12.80;96486.00;;;;8331022;28;20213;-69
2022/09/02 05:57:55;;;;;;;4.00;2.47;;;;;13.10;96483.00;;;;8329269;28;20270;-63
2022/09/02 06:02:05;;;;;;;5.32;2.78;;;;;13.20;96475.00;;;;8329809;28;20234;-65
2022/09/02 06:06:39;;;;;;;2.60;2.40;;;;;13.30;96483.00;;;;8328942;28;20212;-65
2022/09/02 06:16:16;;;;;;;9.50;2.55;;;;;13.40;96472.00;;;;8362485;28;20306;-65
2022/09/02 06:20:51;;;;;;;5.88;2.50;;;;;13.50;96483.00;;;;8362452;28;20246;-65
2022/09/02 06:25:28;;;;;;;4.65;2.45;;;;;13.60;96475.00;;;;8360553;28;20264;-65
2022/09/02 06:30:07;;;;;;;3.00;2.70;;;;;13.60;96477.00;;;;8362561;28;20745;-65
2022/09/02 06:34:42;;;;;;;8.57;2.30;;;;;13.80;96475.00;;;;8360816;28;20310;-65
2022/09/02 06:39:19;;;;;;;3.53;2.42;;;;;13.90;96474.00;;;;8362237;28;20294;-65
2022/09/02 06:43:55;;;;;;;3.38;2.40;;;;;14.10;96473.00;;;;8361207;28;20231;-65
2022/09/02 06:48:28;;;;;;;6.15;2.75;;;;;14.30;96470.00;;;;8361426;28;20213;-65
2022/09/02 06:53:08;;;;;;;6.30;2.72;;;;;14.40;96470.00;;;;8361613;28;20595;-65
2022/09/02 06:57:42;;;;;;;3.38;2.58;;;;;14.60;96472.00;;;;8361090;28;20230;-65
2022/09/02 07:02:19;;;;;;;4.82;2.30;;;;;14.70;96484.00;;;;8359541;28;20239;-66
2022/09/02 07:06:56;;;;;;;3.90;2.50;;;;;14.80;96491.00;;;;8361830;28;20311;-65
2022/09/02 07:11:36;;;;;;;4.50;2.47;;;;;14.90;96490.00;;;;8360935;28;20295;-65
2022/09/02 07:16:10;;;;;;;2.60;2.40;;;;;15.00;96492.00;;;;8360724;28;20223;-65
2022/09/02 07:20:47;;;;;;;2.88;2.55;;;;;15.10;96483.00;;;;8361484;28;20665;-65
2022/09/02 07:25:24;;;;;;;2.72;2.38;;;;;15.40;96494.00;;;;8360239;28;20680;-65
2022/09/02 07:30:03;;;;;;;2.85;2.60;;;;;15.70;96485.00;;;;8360728;28;20235;-64
2022/09/02 07:34:40;;;;;;;3.25;2.50;;;;;16.10;96485.00;;;;8359604;28;20216;-64
2022/09/02 07:38:43;;;;;;;3.40;2.55;;;;;16.50;96479.00;;;;8360125;28;20224;-65
2022/09/02 07:42:46;;;;;;;3.30;2.38;;;;;16.80;96477.00;;;;8360087;28;20273;-66
2022/09/02 07:47:25;;;;;;;2.78;2.58;;;;;17.00;96487.00;;;;8360977;28;20224;-66
2022/09/02 07:51:58;;;;;;;4.57;2.38;;;;;17.30;96483.00;;;;8359614;28;20231;-66
2022/09/02 07:56:36;;;;;;;2.58;2.38;;;;;17.80;96488.00;;;;8360165;28;20323;-66
2022/09/02 08:01:13;;;;;;;3.05;2.50;;;;;18.50;96480.00;;;;8359677;28;20220;-66
2022/09/02 08:05:52;;;;;;;6.38;2.20;;;;;18.80;96484.00;;;;8359654;28;20224;-66
2022/09/02 08:15:11;;;;;;;2.80;2.45;;;;;19.40;96488.00;;;;8359435;28;20227;-66
2022/09/02 08:19:38;;;;;;;2.42;2.22;;;;;19.70;96484.00;;;;8359016;28;20622;-66
2022/09/02 08:24:17;;;;;;;2.05;1.85;;;;;20.20;96490.00;;;;8359113;28;20330;-66
2022/09/02 08:28:50;;;;;;;2.50;2.05;;;;;20.70;96487.00;;;;8360212;28;20236;-66
2022/09/02 08:33:27;;;;;;;3.45;2.00;;;;;21.20;96487.00;;;;8354170;28;20226;-65
2022/09/02 08:38:04;;;;;;;4.85;1.90;;;;;21.40;96484.00;;;;8364443;28;20576;-66
2022/09/02 08:42:44;;;;;;;1.95;1.85;;;;;22.10;96485.00;;;;8358664;28;20216;-66
2022/09/02 08:47:25;;;;;;;6.20;2.10;;;;;23.00;96480.00;;;;8358901;28;20227;-66
2022/09/02 08:52:01;;;;;;;2.28;1.70;;;;;23.00;96484.00;;;;8358629;28;20248;-66
2022/09/02 08:56:34;;;;;;;3.35;1.83;;;;;23.40;96480.00;;;;8359023;28;20231;-66
2022/09/02 09:01:15;;;;;;;1.85;1.75;;;;;24.10;96488.00;;;;8358276;28;20223;-66
2022/09/02 09:05:51;;;;;;;2.08;1.50;;;;;24.10;96477.00;;;;8358748;28;20547;-66
2022/09/02 09:10:21;;;;;;;4.47;1.60;;;;;24.80;96468.00;;;;8357324;28;20320;-66
2022/09/02 09:15:03;;;;;;;4.57;1.50;;;;;25.40;96469.00;;;;8328897;28;20221;-67
2022/09/02 09:19:39;;;;;;;3.83;1.70;;;;;25.50;96474.00;;;;8331510;28;20213;-66
2022/09/02 09:24:09;;;;;;;2.88;1.50;;;;;25.60;96471.00;;;;8331804;28;20308;-66
2022/09/02 09:28:47;;;;;;;1.75;1.60;;;;;25.60;96456.00;;;;8330260;28;20300;-66
2022/09/02 09:33:22;;;;;;;4.70;1.48;;;;;25.00;96463.00;;;;8325463;28;20643;-65
2022/09/02 09:37:59;;;;;;;3.03;1.75;;;;;25.40;96453.00;;;;8330766;28;20236;-65
2022/09/02 09:42:37;;;;;;;1.67;1.58;;;;;25.70;96456.00;;;;8329733;28;20308;-65
2022/09/02 09:46:43;;;;;;;1.83;1.40;;;;;26.00;96452.00;;;;8330622;28;20283;-66
2022/09/02 09:51:20;;;;;;;2.13;1.42;;;;;26.30;96447.00;;;;8324795;28;20243;-66
2022/09/02 09:55:56;;;;;;;1.83;1.52;;;;;26.90;96437.00;;;;8329876;28;20222;-66
2022/09/02 10:00:35;;;;;;;2.13;1.63;;;;;26.70;96447.00;;;;8330132;28;20635;-66
2022/09/02 10:05:17;;;;;;;2.05;1.50;;;;;26.70;96437.00;;;;8330105;28;20263;-68
2022/09/02 10:09:48;;;;;;;2.88;1.60;;;;;25.80;96439.00;;;;8329393;28;20242;-67
2022/09/02 10:14:30;;;;;;;1.55;1.48;;;;;24.70;96441.00;;;;8358348;28;20304;-67
2022/09/02 10:19:09;;;;;;;3.90;2.03;;;;;24.20;96433.00;;;;8365703;28;20225;-67
2022/09/02 10:23:44;;;;;;;1.50;1.30;;;;;25.20;96429.00;;;;8359744;28;20240;-68
2022/09/02 10:28:21;;;;;;;1.60;1.50;;;;;26.40;96418.00;;;;8367728;28;20641;-67
2022/09/02 10:33:05;;;;;;;1.33;1.23;;;;;26.70;96415.00;;;;8363004;28;20601;-68
2022/09/02 10:37:17;;;;;;;1.73;1.63;;;;;25.70;96422.00;;;;8356272;28;20228;-68
2022/09/02 10:41:44;;;;;;;2.50;1.85;;;;;25.90;96424.00;;;;8361545;28;20226;-68
2022/09/02 10:45:57;;;;;;;4.22;1.30;;;;;25.70;96421.00;;;;8362734;28;20235;-68
2022/09/02 10:50:37;;;;;;;2.85;1.27;;;;;26.10;96414.00;;;;8367282;28;20225;-67
2022/09/02 10:55:14;;;;;;;1.40;1.30;;;;;26.90;96411.00;;;;8360801;28;20346;-68
2022/09/02 10:59:44;;;;;;;1.73;1.60;;;;;27.40;96409.00;;;;8361886;28;20244;-68
2022/09/02 11:04:24;;;;;;;2.42;1.60;;;;;26.90;96400.00;;;;8360626;28;20228;-67
2022/09/02 11:08:58;;;;;;;1.20;1.20;;;;;26.70;96406.00;;;;8356085;28;20296;-68
2022/09/02 11:18:26;;;;;;;1.90;1.50;;;;;26.00;96398.00;;;;8354875;28;20273;-69
2022/09/02 11:22:56;;;;;;;4.47;1.50;;;;;26.80;96390.00;;;;8360861;28;20561;-71
2022/09/02 11:27:33;;;;;;;1.30;1.20;;;;;27.70;96387.00;;;;8360948;28;20212;-70
2022/09/02 11:32:10;;;;;;;2.80;1.42;;;;;28.30;96388.00;;;;8360462;28;20224;-69
2022/09/02 11:36:44;;;;;;;1.52;1.30;;;;;28.70;96376.00;;;;8359294;28;20647;-70
2022/09/02 11:41:35;;;;;;;3.20;1.27;;;;;28.70;96380.00;;;;8360891;28;20220;-69
2022/09/02 11:46:02;;;;;;;1.30;1.20;;;;;28.00;96374.00;;;;8279471;28;20645;-69
2022/09/02 11:50:30;;;;;;;1.65;1.40;;;;;26.90;96375.00;;;;8360066;28;20220;-69
2022/09/02 11:54:53;;;;;;;1.30;1.20;;;;;26.80;96364.00;;;;8359439;28;20230;-68
2022/09/02 11:59:44;;;;;;;1.25;1.13;;;;;26.90;96361.00;;;;8359683;28;20232;-67
2022/09/02 12:03:53;;;;;;;1.30;1.30;;;;;27.10;96359.00;;;;8358640;28;20661;-67
2022/09/02 12:08:59;;;;;;;1.58;1.40;;;;;27.20;96367.00;;;;8360586;28;20270;-68
2022/09/02 12:13:04;;;;;;;1.48;1.30;;;;;26.30;96360.00;;;;8277489;28;20229;-69
2022/09/02 12:18:08;;;;;;;3.63;1.40;;;;;25.20;96361.00;;;;8327763;28;20220;-69
2022/09/02 12:22:38;;;;;;;4.03;1.52;;;;;24.70;96349.00;;;;8226386;28;20632;-69
2022/09/02 12:27:11;;;;;;;1.33;1.20;;;;;24.70;96357.00;;;;8288598;28;20224;-69
2022/09/02 12:31:40;;;;;;;1.48;1.38;;;;;25.10;96341.00;;;;8328044;28;20670;-68
2022/09/02 12:35:56;;;;;;;2.20;1.42;;;;;25.40;96347.00;;;;8327085;28;20233;-69
2022/09/02 12:40:09;;;;;;;2.47;1.38;;;;;25.10;96347.00;;;;8327930;28;20213;-69
2022/09/02 12:44:24;;;;;;;1.35;1.35;;;;;24.90;96334.00;;;;8327477;28;20309;-69
2022/09/02 12:48:58;;;;;;;1.38;1.30;;;;;24.80;96333.00;;;;8330689;28;20225;-69
2022/09/02 12:53:33;;;;;;;1.40;1.30;;;;;24.70;96332.00;;;;8333551;28;20647;-69
2022/09/02 12:57:43;;;;;;;1.50;1.40;;;;;24.80;96334.00;;;;8333505;28;20213;-69
2022/09/02 13:01:56;;;;;;;1.35;1.33;;;;;24.60;96335.00;;;;8333010;28;20245;-69
2022/09/02 13:06:34;;;;;;;1.40;1.30;;;;;24.40;96329.00;;;;8332648;28;20225;-70
2022/09/02 13:11:19;;;;;;;3.22;1.52;;;;;24.60;96322.00;;;;8334028;28;20229;-70
2022/09/02 13:15:53;;;;;;;1.50;1.40;;;;;25.40;96311.00;;;;8332518;28;20221;-70
2022/09/02 13:20:46;;;;;;;1.35;1.30;;;;;26.00;96315.00;;;;8365493;28;20538;-70
2022/09/02 13:25:27;;;;;;;1.58;1.48;;;;;26.20;96307.00;;;;8363850;28;20217;-70
2022/09/02 13:30:03;;;;;;;1.25;1.20;;;;;26.40;96309.00;;;;8351199;28;20220;-72
2022/09/02 13:34:13;;;;;;;2.15;1.20;;;;;26.30;96304.00;;;;8362942;28;20267;-71
2022/09/02 13:38:24;;;;;;;1.10;1.10;;;;;26.20;96301.00;;;;8363684;28;20311;-68
2022/09/02 13:42:29;;;;;;;1.27;1.23;;;;;26.00;96296.00;;;;8365569;28;20224;-69
2022/09/02 13:46:44;;;;;;;1.33;1.23;;;;;25.80;96300.00;;;;8365299;28;20600;-68
2022/09/02 13:50:50;;;;;;;1.30;1.30;;;;;26.30;96300.00;;;;8365548;28;20220;-69
2022/09/02 13:54:58;;;;;;;1.90;1.17;;;;;27.40;96304.00;;;;8364582;28;20221;-69
2022/09/02 13:59:01;;;;;;;2.30;1.20;;;;;28.20;96300.00;;;;8364657;28;20640;-70
2022/09/02 14:03:39;;;;;;;2.53;1.17;;;;;28.80;96292.00;;;;8364065;28;20281;-70
2022/09/02 14:08:16;;;;;;;1.48;1.38;;;;;29.20;96292.00;;;;8363222;28;20225;-69
2022/09/02 14:12:21;;;;;;;1.20;1.20;;;;;29.30;96288.00;;;;8359639;28;20229;-70
2022/09/02 14:17:10;;;;;;;2.15;1.20;;;;;29.40;96291.00;;;;8360137;28;20649;-70
2022/09/02 14:21:33;;;;;;;1.23;1.13;;;;;29.50;96287.00;;;;8361738;28;20698;-69
2022/09/02 14:26:07;;;;;;;1.30;1.20;;;;;29.50;96277.00;;;;8362265;28;20216;-69
2022/09/02 14:30:56;;;;;;;1.40;1.30;;;;;29.60;96273.00;;;;8362290;28;20650;-70
2022/09/02 14:35:22;;;;;;;1.50;1.40;;;;;29.50;96260.00;;;;8362872;28;20303;-70
2022/09/02 14:39:25;;;;;;;1.33;1.23;;;;;29.60;96263.00;;;;8361877;28;20542;-71
2022/09/02 14:44:10;;;;;;;1.63;1.33;;;;;30.00;96253.00;;;;8362404;28;20216;-70
2022/09/02 14:48:39;;;;;;;1.20;1.10;;;;;30.10;96256.00;;;;8361163;28;20244;-70
2022/09/02 14:53:19;;;;;;;2.35;1.30;;;;;30.20;96256.00;;;;8362357;28;20586;-70
2022/09/02 14:58:00;;;;;;;2.25;1.20;;;;;30.30;96253.00;;;;8361290;28;20619;-70
2022/09/02 15:02:29;;;;;;;2.08;1.30;;;;;29.90;96246.00;;;;8361706;28;20646;-70
2022/09/02 15:07:02;;;;;;;1.20;1.20;;;;;28.90;96248.00;;;;8361158;28;20239;-70
2022/09/02 15:11:38;;;;;;;2.25;1.30;;;;;28.60;96248.00;;;;8359738;28;20303;-70
2022/09/02 15:15:41;;;;;;;1.50;1.40;;;;;27.90;96238.00;;;;8327292;28;20228;-70
2022/09/02 15:19:56;;;;;;;2.40;1.20;;;;;27.20;96235.00;;;;8328021;28;20287;-67
2022/09/02 15:24:32;;;;;;;1.73;1.50;;;;;26.60;96232.00;;;;8327210;28;20220;-68
2022/09/02 15:29:06;;;;;;;1.92;1.38;;;;;26.60;96229.00;;;;8327655;28;20297;-69
2022/09/02 15:33:10;;;;;;;1.38;1.27;;;;;26.50;96219.00;;;;8326525;28;20233;-69
2022/09/02 15:37:49;;;;;;;1.95;1.52;;;;;26.70;96233.00;;;;8327574;28;20222;-70
2022/09/02 15:41:55;;;;;;;1.30;1.20;;;;;26.80;96229.00;;;;8324469;28;20221;-70
2022/09/02 15:46:30;;;;;;;1.33;1.25;;;;;27.10;96229.00;;;;8324348;28;20303;-71
2022/09/02 15:50:33;;;;;;;1.02;1.02;;;;;27.00;96227.00;;;;8326138;28;20286;-70
2022/09/02 15:55:10;;;;;;;1.30;1.20;;;;;27.00;96217.00;;;;8326588;28;20304;-70
2022/09/02 15:59:19;;;;;;;2.97;1.30;;;;;26.90;96210.00;;;;8326594;28;20705;-70
2022/09/02 16:03:22;;;;;;;1.50;1.30;;;;;26.80;96213.00;;;;8326905;28;20304;-70
2022/09/02 16:07:26;;;;;;;2.50;2.30;;;;;26.60;96214.00;;;;8327598;28;20582;-70
2022/09/02 16:11:29;;;;;;;1.63;1.52;;;;;26.70;96213.00;;;;8326155;28;20252;-71
2022/09/02 16:16:09;;;;;;;1.50;1.40;;;;;26.50;96219.00;;;;8358733;28;20248;-70
2022/09/02 16:20:12;;;;;;;2.40;1.17;;;;;26.10;96219.00;;;;8359759;28;20243;-70
2022/09/02 16:24:49;;;;;;;3.38;2.72;;;;;25.80;96207.00;;;;8365834;28;20220;-70
2022/09/02 16:28:56;;;;;;;2.80;1.63;;;;;26.00;96205.00;;;;8366351;28;20220;-70
2022/09/02 16:33:01;;;;;;;1.40;1.35;;;;;26.30;96197.00;;;;8364547;28;20219;-71
2022/09/02 16:37:04;;;;;;;1.20;1.20;;;;;26.60;96203.00;;;;8365671;28;20252;-70
2022/09/02 16:41:21;;;;;;;1.40;1.30;;;;;26.40;96200.00;;;;8365375;28;20224;-70
2022/09/02 16:45:44;;;;;;;3.45;1.25;;;;;26.30;96193.00;;;;8366421;28;20224;-70
2022/09/02 16:49:49;;;;;;;1.58;1.30;;;;;26.00;96193.00;;;;8365851;28;20224;-70
2022/09/02 16:54:22;;;;;;;1.50;1.40;;;;;25.50;96179.00;;;;8364655;28;20224;-70
2022/09/02 16:58:35;;;;;;;1.65;1.35;;;;;24.60;96178.00;;;;8364407;28;20299;-70
2022/09/02 17:03:10;;;;;;;7.18;1.42;;;;;23.80;96176.00;;;;8365361;28;20236;-70
2022/09/02 17:07:15;;;;;;;1.20;1.20;;;;;23.20;96179.00;;;;8364023;28;20247;-70
2022/09/02 17:11:21;;;;;;;2.75;1.15;;;;;22.70;96181.00;;;;8364341;28;20305;-69
2022/09/02 17:15:58;;;;;;;1.38;1.27;;;;;22.30;96188.00;;;;8364580;28;20315;-69
2022/09/02 17:20:01;;;;;;;2.28;1.23;;;;;21.90;96183.00;;;;8364197;28;20300;-71
2022/09/02 17:24:09;;;;;;;1.30;1.20;;;;;21.70;96190.00;;;;8364233;28;20574;-69
2022/09/02 17:28:12;;;;;;;5.05;1.45;;;;;21.40;96199.00;;;;8363264;28;20220;-69
2022/09/02 17:32:15;;;;;;;1.88;1.30;;;;;21.10;96198.00;;;;8364463;28;20267;-70
2022/09/02 17:36:49;;;;;;;1.25;1.20;;;;;20.90;96201.00;;;;8363661;28;20220;-70
2022/09/02 17:45:53;;;;;;;3.45;1.35;;;;;20.40;96201.00;;;;8363843;28;20208;-70
2022/09/02 17:49:58;;;;;;;4.30;1.35;;;;;20.10;96195.00;;;;8357794;28;20658;-70
2022/09/02 17:54:01;;;;;;;1.40;1.30;;;;;20.00;96194.00;;;;8364032;28;20221;-69
2022/09/02 17:58:45;;;;;;;2.75;1.13;;;;;19.80;96204.00;;;;8363341;28;20294;-73
2022/09/02 18:03:24;;;;;;;1.10;1.10;;;;;19.60;96202.00;;;;8362124;28;20225;-71
2022/09/02 18:07:33;;;;;;;1.25;1.15;;;;;19.50;96185.00;;;;8363094;28;20224;-70
2022/09/02 18:12:06;;;;;;;1.92;1.40;;;;;19.20;96193.00;;;;8363499;28;20221;-70
2022/09/02 18:17:04;;;;;;;2.10;1.20;;;;;19.10;96207.00;;;;8359820;28;20259;-71
2022/09/02 18:21:29;;;;;;;1.10;1.10;;;;;18.90;96212.00;;;;8361763;28;20634;-69
2022/09/02 18:25:46;;;;;;;1.27;1.20;;;;;18.70;96228.00;;;;8362557;28;20303;-70
2022/09/02 18:30:11;;;;;;;1.20;1.10;;;;;18.60;96220.00;;;;8361175;28;20232;-70
2022/09/02 18:34:47;;;;;;;1.23;1.23;;;;;18.40;96231.00;;;;8362025;28;20225;-70
2022/09/02 18:39:27;;;;;;;1.20;1.20;;;;;18.30;96230.00;;;;8358715;28;20232;-72
2022/09/02 18:43:53;;;;;;;1.30;1.20;;;;;18.20;96238.00;;;;8362076;28;20566;-73
2022/09/02 18:48:24;;;;;;;1.50;1.40;;;;;18.10;96242.00;;;;8359969;28;20236;-71
2022/09/02 18:53:01;;;;;;;1.02;1.02;;;;;18.00;96244.00;;;;8359896;28;20220;-71
2022/09/02 18:57:43;;;;;;;2.25;1.30;;;;;18.00;96242.00;;;;8357827;28;20662;-72
2022/09/02 19:02:15;;;;;;;1.40;1.30;;;;;17.90;96238.00;;;;8358575;28;20232;-70
2022/09/02 19:06:47;;;;;;;4.15;1.30;;;;;17.80;96237.00;;;;8359704;28;20282;-71
2022/09/02 19:11:26;;;;;;;1.33;1.30;;;;;17.70;96237.00;;;;8361113;28;20677;-71
2022/09/02 19:20:46;;;;;;;1.50;1.40;;;;;17.40;96249.00;;;;8360448;28;20245;-71
2022/09/02 19:25:23;;;;;;;2.25;1.50;;;;;17.30;96247.00;;;;8358304;28;20654;-71
2022/09/02 19:30:14;;;;;;;1.58;1.48;;;;;17.10;96232.00;;;;8359242;28;20314;-71
2022/09/02 19:34:44;;;;;;;1.45;1.35;;;;;16.90;96222.00;;;;8358319;28;20622;-69
2022/09/02 19:39:19;;;;;;;1.35;1.30;;;;;16.90;96238.00;;;;8358572;28;20654;-70
2022/09/02 19:43:54;;;;;;;4.03;1.40;;;;;16.80;96228.00;;;;8360022;28;20270;-70
2022/09/02 19:48:31;;;;;;;1.33;1.20;;;;;16.70;96231.00;;;;8360859;28;20635;-70
2022/09/02 19:53:09;;;;;;;2.05;1.30;;;;;16.70;96223.00;;;;8361431;28;20304;-71
2022/09/02 19:57:43;;;;;;;1.52;1.30;;;;;16.70;96239.00;;;;8359265;28;20224;-71
2022/09/02 20:02:22;;;;;;;1.30;1.30;;;;;16.70;96246.00;;;;8359418;28;20224;-71
2022/09/02 20:06:57;;;;;;;1.63;1.52;;;;;16.60;96256.00;;;;8360033;28;20678;-70
2022/09/02 20:11:31;;;;;;;1.75;1.52;;;;;16.60;96252.00;;;;8360215;28;20551;-71
2022/09/02 20:21:08;;;;;;;1.60;1.50;;;;;16.40;96263.00;;;;8353005;28;20235;-70
2022/09/02 20:25:47;;;;;;;1.50;1.42;;;;;16.30;96248.00;;;;8359743;28;20531;-72
2022/09/02 20:30:18;;;;;;;1.70;1.60;;;;;16.20;96249.00;;;;8366045;28;20229;-73
2022/09/02 20:34:34;;;;;;;1.60;1.50;;;;;16.20;96244.00;;;;8360772;28;20311;-73
2022/09/02 20:39:06;;;;;;;1.55;1.40;;;;;16.10;96252.00;;;;8359814;28;20224;-72
2022/09/02 20:43:36;;;;;;;1.85;1.70;;;;;16.10;96241.00;;;;8359971;28;20219;-71
2022/09/02 20:48:16;;;;;;;1.75;1.42;;;;;16.10;96237.00;;;;8348075;28;20225;-70
2022/09/02 20:52:51;;;;;;;1.73;1.50;;;;;16.00;96246.00;;;;8360455;28;20223;-69
2022/09/02 20:57:26;;;;;;;1.40;1.40;;;;;16.00;96249.00;;;;8359280;28;20228;-69
2022/09/02 21:01:33;;;;;;;2.15;1.30;;;;;16.00;96247.00;;;;8360292;28;20221;-69
2022/09/02 21:05:41;;;;;;;1.60;1.50;;;;;16.00;96248.00;;;;8355561;28;20216;-69
2022/09/02 21:09:50;;;;;;;1.70;1.60;;;;;15.90;96242.00;;;;8363572;28;20234;-69
2022/09/02 21:14:02;;;;;;;1.58;1.48;;;;;15.90;96238.00;;;;8364762;28;20725;-70
2022/09/02 21:18:14;;;;;;;1.63;1.42;;;;;15.80;96242.00;;;;8365791;28;20307;-70
2022/09/02 21:22:44;;;;;;;6.25;2.05;;;;;15.70;96231.00;;;;8365433;28;20224;-70
2022/09/02 21:26:54;;;;;;;4.43;1.67;;;;;15.60;96227.00;;;;8364406;28;20259;-70
2022/09/02 21:31:05;;;;;;;1.58;1.40;;;;;15.50;96220.00;;;;8365648;28;20289;-70
2022/09/02 21:35:38;;;;;;;1.70;1.60;;;;;15.40;96237.00;;;;8364709;28;20645;-70
2022/09/02 21:39:48;;;;;;;1.83;1.65;;;;;15.30;96240.00;;;;8363790;28;20228;-71
2022/09/02 21:43:59;;;;;;;1.70;1.52;;;;;15.30;96241.00;;;;8364879;28;20319;-70
2022/09/02 21:48:32;;;;;;;2.65;2.00;;;;;15.30;96241.00;;;;8363252;28;20333;-70
2022/09/02 21:52:52;;;;;;;1.80;1.70;;;;;15.30;96235.00;;;;8364891;28;20222;-70
2022/09/02 21:57:24;;;;;;;1.80;1.60;;;;;15.20;96228.00;;;;8363523;28;20224;-71
2022/09/02 22:01:39;;;;;;;1.73;1.63;;;;;15.20;96230.00;;;;8364318;28;20619;-71
2022/09/02 22:06:11;;;;;;;2.70;1.60;;;;;15.20;96227.00;;;;8362433;28;20240;-70
2022/09/02 22:10:25;;;;;;;2.50;1.63;;;;;15.30;96234.00;;;;8363844;28;20255;-69
2022/09/02 22:14:37;;;;;;;1.60;1.50;;;;;15.30;96234.00;;;;8363625;28;20228;-70
2022/09/02 22:18:44;;;;;;;2.75;1.90;;;;;15.20;96242.00;;;;8364489;28;20238;-70
2022/09/02 22:22:53;;;;;;;1.98;1.88;;;;;15.20;96223.00;;;;8362023;28;20303;-70
2022/09/02 22:27:03;;;;;;;2.53;2.00;;;;;15.10;96230.00;;;;8363283;28;20230;-70
2022/09/02 22:31:14;;;;;;;1.65;1.55;;;;;15.00;96227.00;;;;8363057;28;20299;-71
2022/09/02 22:35:26;;;;;;;3.70;1.80;;;;;15.00;96229.00;;;;8362916;28;20224;-71
2022/09/02 22:39:37;;;;;;;2.40;1.60;;;;;15.10;96232.00;;;;8363410;28;20815;-71
2022/09/02 22:44:07;;;;;;;1.75;1.65;;;;;15.00;96221.00;;;;8362371;28;20219;-71